Time;durP1;ratioP1;P1;durP2;ratioP2;P2;SDS_P1;SDS_P2;PMS_P1;PMS_P2;Temp;Humidity;BMP_temperature;BMP_pressure;BME280_temperature;BME280_humidity;BME280_pressure;Samples;Min_cycle;Max_cycle;Signal;HPM_P1;HPM_P2
2021/09/25 05:00:58;;;;;;;1999.90;999.90;;;;;;;;;;5854398;23;20244;-74
2021/09/25 05:03:43;;;;;;;1999.90;999.90;;;;;;;;;;4972874;28;20240;-74
2021/09/25 05:06:28;;;;;;;1999.90;999.90;;;;;;;;;;4971971;28;20336;-74
2021/09/25 05:09:13;;;;;;;1999.90;999.90;;;;;;;;;;4972636;28;20212;-74
2021/09/25 05:11:58;;;;;;;1999.90;999.90;;;;;;;;;;4972544;28;20227;-74
2021/09/25 05:14:43;;;;;;;1999.90;999.90;;;;;;;;;;4972448;28;20271;-73
2021/09/25 05:17:30;;;;;;;1999.90;999.90;;;;;;;;;;4971787;28;20267;-74
2021/09/25 05:20:15;;;;;;;1999.90;999.90;;;;;;;;;;4972261;28;20203;-74
2021/09/25 05:23:00;;;;;;;1999.90;999.90;;;;;;;;;;4972431;28;20207;-74
2021/09/25 05:25:47;;;;;;;1999.90;999.90;;;;;;;;;;4972254;28;20581;-74
2021/09/25 05:28:32;;;;;;;1999.90;999.90;;;;;;;;;;4972114;28;20204;-74
2021/09/25 05:31:17;;;;;;;1999.90;999.90;;;;;;;;;;4972310;28;20232;-74
2021/09/25 05:34:04;;;;;;;1999.90;999.90;;;;;;;;;;4971913;28;20207;-74
2021/09/25 05:36:49;;;;;;;1999.90;999.90;;;;;;;;;;4971316;28;20336;-74
2021/09/25 05:39:34;;;;;;;1999.90;999.90;;;;;;;;;;4972174;28;20758;-74
2021/09/25 05:42:19;;;;;;;1999.90;999.90;;;;;;;;;;4972017;28;20228;-74
2021/09/25 05:45:04;;;;;;;1999.90;999.90;;;;;;;;;;4963932;28;20203;-74
2021/09/25 05:47:49;;;;;;;1999.90;999.90;;;;;;;;;;4959794;28;20215;-75
2021/09/25 05:50:35;;;;;;;1999.90;999.90;;;;;;;;;;4963905;28;20287;-74
2021/09/25 05:53:20;;;;;;;1999.90;999.90;;;;;;;;;;4970240;28;20312;-74
2021/09/25 05:56:05;;;;;;;1999.90;999.90;;;;;;;;;;4971423;28;20373;-73
2021/09/25 05:58:50;;;;;;;1999.90;999.90;;;;;;;;;;4971628;28;20227;-74
2021/09/25 06:01:36;;;;;;;1999.90;999.90;;;;;;;;;;4971696;28;20274;-74
2021/09/25 06:04:22;;;;;;;1999.90;999.90;;;;;;;;;;4971159;28;20223;-72
2021/09/25 06:07:11;;;;;;;1999.90;999.90;;;;;;;;;;4971240;28;20212;-72
2021/09/25 06:09:56;;;;;;;1999.90;999.90;;;;;;;;;;4971857;28;20205;-72
2021/09/25 06:12:41;;;;;;;1999.90;999.90;;;;;;;;;;4971575;28;20235;-71
2021/09/25 06:15:26;;;;;;;1999.90;999.90;;;;;;;;;;4971432;28;20437;-73
2021/09/25 06:18:12;;;;;;;1999.90;999.90;;;;;;;;;;4970970;28;20328;-72
2021/09/25 06:20:58;;;;;;;1999.90;999.90;;;;;;;;;;4971537;28;20239;-72
2021/09/25 06:23:44;;;;;;;1999.90;999.90;;;;;;;;;;4971662;28;20203;-74
2021/09/25 06:26:29;;;;;;;1999.90;999.90;;;;;;;;;;4970731;28;20208;-72
2021/09/25 06:29:14;;;;;;;1999.90;999.90;;;;;;;;;;4971939;28;20581;-73
2021/09/25 06:31:59;;;;;;;1999.90;999.90;;;;;;;;;;4971784;28;20810;-72
2021/09/25 06:34:43;;;;;;;1999.90;999.90;;;;;;;;;;4971784;28;20278;-72
2021/09/25 06:37:30;;;;;;;1999.90;999.90;;;;;;;;;;4974650;28;20754;-72
2021/09/25 06:40:16;;;;;;;1999.90;999.90;;;;;;;;;;4975304;28;20302;-73
2021/09/25 06:43:03;;;;;;;1999.90;999.90;;;;;;;;;;4975505;28;20297;-72
2021/09/25 06:45:48;;;;;;;1999.90;999.90;;;;;;;;;;4975356;28;20732;-73
2021/09/25 06:48:32;;;;;;;1999.90;999.90;;;;;;;;;;4975449;28;20598;-72
2021/09/25 06:51:18;;;;;;;1999.90;999.90;;;;;;;;;;4975321;28;20235;-72
2021/09/25 06:54:04;;;;;;;1999.90;999.90;;;;;;;;;;4975444;28;20224;-72
2021/09/25 06:56:50;;;;;;;1999.90;999.90;;;;;;;;;;4972897;28;20215;-71
2021/09/25 06:59:35;;;;;;;1999.90;999.90;;;;;;;;;;4974543;28;20579;-72
2021/09/25 07:02:20;;;;;;;1999.90;999.90;;;;;;;;;;4975437;28;20286;-72
2021/09/25 07:05:05;;;;;;;1999.90;999.90;;;;;;;;;;4975259;28;20289;-73
2021/09/25 07:07:50;;;;;;;1999.90;999.90;;;;;;;;;;4974328;28;20215;-74
2021/09/25 07:10:36;;;;;;;1999.90;999.90;;;;;;;;;;4973336;28;20212;-74
2021/09/25 07:13:22;;;;;;;1999.90;999.90;;;;;;;;;;4955675;29;20332;-73
2021/09/25 07:16:08;;;;;;;1999.90;999.90;;;;;;;;;;4963966;28;20219;-74
2021/09/25 07:18:54;;;;;;;1999.90;999.90;;;;;;;;;;4968997;28;20227;-73
2021/09/25 07:21:38;;;;;;;1999.90;999.90;;;;;;;;;;4971806;28;20597;-76
2021/09/25 07:24:23;;;;;;;1999.90;999.90;;;;;;;;;;4969931;28;20212;-73
2021/09/25 07:27:08;;;;;;;1999.90;999.90;;;;;;;;;;4961561;28;20211;-77
2021/09/25 07:29:55;;;;;;;1999.90;999.90;;;;;;;;;;4955274;29;20209;-73
2021/09/25 07:32:39;;;;;;;1999.90;999.90;;;;;;;;;;4973029;28;20251;-73
2021/09/25 07:35:25;;;;;;;1999.90;999.90;;;;;;;;;;4974400;28;20569;-74
2021/09/25 07:38:10;;;;;;;1999.90;999.90;;;;;;;;;;4973658;28;20215;-73
2021/09/25 07:40:56;;;;;;;1999.90;999.90;;;;;;;;;;4961854;28;20590;-73
2021/09/25 07:43:41;;;;;;;1999.90;999.90;;;;;;;;;;4954852;29;20264;-74
2021/09/25 07:46:28;;;;;;;1999.90;999.90;;;;;;;;;;4970846;28;20499;-73
2021/09/25 07:49:13;;;;;;;1999.90;999.90;;;;;;;;;;4973284;28;20204;-75
2021/09/25 07:51:58;;;;;;;1999.90;999.90;;;;;;;;;;4973470;28;20254;-73
2021/09/25 07:54:43;;;;;;;1999.90;999.90;;;;;;;;;;4974072;28;20576;-72
2021/09/25 07:57:28;;;;;;;1999.90;999.90;;;;;;;;;;4971936;28;20255;-72
2021/09/25 08:00:14;;;;;;;1999.90;999.90;;;;;;;;;;4969955;28;20990;-73
2021/09/25 08:03:00;;;;;;;1999.90;999.90;;;;;;;;;;4971694;28;20231;-72
2021/09/25 08:05:45;;;;;;;1999.90;999.90;;;;;;;;;;4972679;28;20211;-73
2021/09/25 08:08:30;;;;;;;1999.90;999.90;;;;;;;;;;4972974;28;20224;-74
2021/09/25 08:11:14;;;;;;;1999.90;999.90;;;;;;;;;;4971128;28;20920;-73
2021/09/25 08:13:59;;;;;;;1999.90;999.90;;;;;;;;;;4970771;28;20722;-73
2021/09/25 08:16:44;;;;;;;1999.90;999.90;;;;;;;;;;4969461;28;20215;-74
2021/09/25 08:19:31;;;;;;;1999.90;999.90;;;;;;;;;;4972015;28;20641;-74
2021/09/25 08:22:15;;;;;;;1999.90;999.90;;;;;;;;;;4973354;28;20612;-74
2021/09/25 08:25:01;;;;;;;1999.90;999.90;;;;;;;;;;4969861;28;20287;-71
2021/09/25 08:27:47;;;;;;;1999.90;999.90;;;;;;;;;;4966673;28;20219;-73
2021/09/25 08:30:33;;;;;;;1999.90;999.90;;;;;;;;;;4970508;28;20593;-74
2021/09/25 08:33:18;;;;;;;1999.90;999.90;;;;;;;;;;4963184;28;20569;-73
2021/09/25 08:36:04;;;;;;;1999.90;999.90;;;;;;;;;;4963076;28;20224;-71
2021/09/25 08:38:49;;;;;;;1999.90;999.90;;;;;;;;;;4968196;28;20208;-73
2021/09/25 08:41:34;;;;;;;1999.90;999.90;;;;;;;;;;4956847;28;20734;-74
2021/09/25 08:44:19;;;;;;;1999.90;999.90;;;;;;;;;;4961064;28;20261;-72
2021/09/25 08:47:06;;;;;;;1999.90;999.90;;;;;;;;;;4965755;28;20213;-74
2021/09/25 08:49:51;;;;;;;1999.90;999.90;;;;;;;;;;4972144;28;20746;-73
2021/09/25 08:52:38;;;;;;;1999.90;999.90;;;;;;;;;;4972832;28;20352;-74
2021/09/25 08:55:23;;;;;;;1999.90;999.90;;;;;;;;;;4972680;28;20208;-74
2021/09/25 08:58:10;;;;;;;1999.90;999.90;;;;;;;;;;4972016;28;20291;-73
2021/09/25 09:00:55;;;;;;;1999.90;999.90;;;;;;;;;;4969512;28;20245;-74
2021/09/25 09:03:44;;;;;;;1999.90;999.90;;;;;;;;;;4964775;28;20584;-73
2021/09/25 09:06:30;;;;;;;1999.90;999.90;;;;;;;;;;4969921;28;20203;-73
2021/09/25 09:09:17;;;;;;;1999.90;999.90;;;;;;;;;;4970596;28;20320;-73
2021/09/25 09:12:02;;;;;;;1999.90;999.90;;;;;;;;;;4971432;28;20630;-73
2021/09/25 09:14:48;;;;;;;1999.90;999.90;;;;;;;;;;4970913;28;20232;-74
2021/09/25 09:17:33;;;;;;;1999.90;999.90;;;;;;;;;;4970075;28;20203;-75
2021/09/25 09:20:19;;;;;;;1999.90;999.90;;;;;;;;;;4970864;28;20241;-71
2021/09/25 09:23:14;;;;;;;1999.90;999.90;;;;;;;;;;4952609;29;20490;-71
2021/09/25 09:26:01;;;;;;;1999.90;999.90;;;;;;;;;;4960756;28;20754;-73
2021/09/25 09:28:48;;;;;;;1999.90;999.90;;;;;;;;;;4972034;28;20850;-72
2021/09/25 09:31:34;;;;;;;1999.90;999.90;;;;;;;;;;4969304;28;20714;-73
2021/09/25 09:34:19;;;;;;;1999.90;999.90;;;;;;;;;;4966223;28;20738;-71
2021/09/25 09:37:11;;;;;;;1999.90;999.90;;;;;;;;;;4970312;28;20252;-71
2021/09/25 09:40:00;;;;;;;1999.90;999.90;;;;;;;;;;4969074;28;20295;-73
2021/09/25 09:42:47;;;;;;;1999.90;999.90;;;;;;;;;;4968357;28;20224;-70
2021/09/25 09:45:36;;;;;;;1999.90;999.90;;;;;;;;;;4969092;28;20356;-71
2021/09/25 09:48:21;;;;;;;1999.90;999.90;;;;;;;;;;4968935;28;20221;-70
2021/09/25 09:51:06;;;;;;;1999.90;999.90;;;;;;;;;;4971367;28;20228;-73
2021/09/25 09:53:51;;;;;;;1999.90;999.90;;;;;;;;;;4971667;28;20690;-70
2021/09/25 09:56:38;;;;;;;1999.90;999.90;;;;;;;;;;4970942;28;20228;-70
2021/09/25 09:59:26;;;;;;;1999.90;999.90;;;;;;;;;;4966026;28;20209;-70
2021/09/25 10:02:11;;;;;;;1999.90;999.90;;;;;;;;;;4961341;28;20740;-71
2021/09/25 10:04:56;;;;;;;1999.90;999.90;;;;;;;;;;4971640;28;20717;-70
2021/09/25 10:07:43;;;;;;;1999.90;999.90;;;;;;;;;;4970814;28;20206;-70
2021/09/25 10:10:28;;;;;;;1999.90;999.90;;;;;;;;;;4960245;28;20214;-71
2021/09/25 10:13:16;;;;;;;1999.90;999.90;;;;;;;;;;4967191;28;20700;-71
2021/09/25 10:16:03;;;;;;;1999.90;999.90;;;;;;;;;;4971591;28;20575;-71
2021/09/25 10:18:50;;;;;;;1999.90;999.90;;;;;;;;;;4969767;28;20806;-71
2021/09/25 10:21:36;;;;;;;1999.90;999.90;;;;;;;;;;4969741;28;20246;-71
2021/09/25 10:24:24;;;;;;;1999.90;999.90;;;;;;;;;;4961788;28;20261;-70
2021/09/25 10:27:09;;;;;;;1999.90;999.90;;;;;;;;;;4968087;28;20219;-70
2021/09/25 10:29:54;;;;;;;1999.90;999.90;;;;;;;;;;4971402;28;20211;-71
2021/09/25 10:32:43;;;;;;;1999.90;999.90;;;;;;;;;;4987795;28;20599;-71
2021/09/25 10:35:28;;;;;;;1999.90;999.90;;;;;;;;;;4983574;28;20484;-71
2021/09/25 10:38:13;;;;;;;1999.90;999.90;;;;;;;;;;4962944;28;20571;-70
2021/09/25 10:41:13;;;;;;;1999.90;999.90;;;;;;;;;;4969058;28;20766;-71
2021/09/25 10:43:58;;;;;;;1999.90;999.90;;;;;;;;;;4971636;28;20681;-71
2021/09/25 10:46:43;;;;;;;1999.90;999.90;;;;;;;;;;4970440;28;20210;-71
2021/09/25 10:49:39;;;;;;;1999.90;999.90;;;;;;;;;;4970328;28;20214;-72
2021/09/25 10:52:26;;;;;;;1999.90;999.90;;;;;;;;;;4971509;28;20704;-72
2021/09/25 10:55:25;;;;;;;1999.90;999.90;;;;;;;;;;4971256;28;20222;-73
2021/09/25 10:58:20;;;;;;;1999.90;999.90;;;;;;;;;;4971083;28;20218;-72
2021/09/25 11:01:06;;;;;;;1999.90;999.90;;;;;;;;;;4971141;28;20302;-72
2021/09/25 11:03:59;;;;;;;1999.90;999.90;;;;;;;;;;4968750;28;20277;-72
2021/09/25 11:06:48;;;;;;;1999.90;999.90;;;;;;;;;;4966935;28;20339;-72
2021/09/25 11:09:34;;;;;;;1999.90;999.90;;;;;;;;;;4966360;28;20223;-71
2021/09/25 11:12:20;;;;;;;1999.90;999.90;;;;;;;;;;4965858;28;20251;-71
2021/09/25 11:15:05;;;;;;;1999.90;999.90;;;;;;;;;;4969959;28;20219;-73
2021/09/25 11:17:50;;;;;;;1999.90;999.90;;;;;;;;;;4970048;28;20208;-72
2021/09/25 11:20:35;;;;;;;1999.90;999.90;;;;;;;;;;4964629;28;20503;-73
2021/09/25 11:23:21;;;;;;;1999.90;999.90;;;;;;;;;;4970342;28;20313;-74
2021/09/25 11:26:07;;;;;;;1999.90;999.90;;;;;;;;;;4973995;28;20208;-72
2021/09/25 11:28:51;;;;;;;1999.90;999.90;;;;;;;;;;4974510;28;20267;-73
2021/09/25 11:31:37;;;;;;;1999.90;999.90;;;;;;;;;;4979611;28;20227;-74
2021/09/25 11:34:24;;;;;;;1999.90;999.90;;;;;;;;;;4974350;28;20552;-72
2021/09/25 11:37:09;;;;;;;1999.90;999.90;;;;;;;;;;4969816;28;20700;-72
2021/09/25 11:39:56;;;;;;;1999.90;999.90;;;;;;;;;;4965831;28;20217;-72
2021/09/25 11:42:41;;;;;;;1999.90;999.90;;;;;;;;;;4972489;28;20240;-73
2021/09/25 11:45:29;;;;;;;1999.90;999.90;;;;;;;;;;4972780;28;20491;-75
2021/09/25 11:48:16;;;;;;;1999.90;999.90;;;;;;;;;;4963725;28;20216;-75
2021/09/25 11:51:02;;;;;;;1999.90;999.90;;;;;;;;;;4972748;28;20232;-75
2021/09/25 11:53:53;;;;;;;1999.90;999.90;;;;;;;;;;4973879;28;20695;-75
2021/09/25 11:56:39;;;;;;;1999.90;999.90;;;;;;;;;;4971742;28;20283;-75
2021/09/25 11:59:26;;;;;;;1999.90;999.90;;;;;;;;;;4969669;28;20299;-77
2021/09/25 12:02:11;;;;;;;1999.90;999.90;;;;;;;;;;4974121;28;20291;-76
2021/09/25 12:18:56;;;;;;;1999.90;999.90;;;;;;;;;;5869071;23;20319;-70
2021/09/25 12:21:50;;;;;;;1999.90;999.90;;;;;;;;;;4972356;28;20531;-70
2021/09/25 12:24:35;;;;;;;1999.90;999.90;;;;;;;;;;4973153;28;20288;-69
2021/09/25 12:27:27;;;;;;;1999.90;999.90;;;;;;;;;;4970135;28;20351;-70
2021/09/25 12:30:14;;;;;;;1999.90;999.90;;;;;;;;;;4954827;28;20221;-70
2021/09/25 12:33:00;;;;;;;1999.90;999.90;;;;;;;;;;4953929;28;20291;-70
2021/09/25 12:35:53;;;;;;;1999.90;999.90;;;;;;;;;;4953893;29;20217;-70
2021/09/25 12:38:40;;;;;;;1999.90;999.90;;;;;;;;;;4934638;29;20357;-70
2021/09/25 12:41:27;;;;;;;1999.90;999.90;;;;;;;;;;4935262;29;20261;-71
2021/09/25 12:44:13;;;;;;;1999.90;999.90;;;;;;;;;;4947362;29;20714;-71
2021/09/25 12:47:00;;;;;;;1999.90;999.90;;;;;;;;;;4951538;29;20221;-70
2021/09/25 12:49:45;;;;;;;1999.90;999.90;;;;;;;;;;4952016;28;20348;-70
2021/09/25 12:52:30;;;;;;;1999.90;999.90;;;;;;;;;;4954358;29;20201;-71
2021/09/25 12:55:16;;;;;;;1999.90;999.90;;;;;;;;;;4953936;29;20212;-70
2021/09/25 12:58:03;;;;;;;1999.90;999.90;;;;;;;;;;4951755;28;20448;-69
2021/09/25 13:00:53;;;;;;;1999.90;999.90;;;;;;;;;;4951507;29;20345;-70
2021/09/25 13:03:38;;;;;;;1999.90;999.90;;;;;;;;;;4953743;29;20253;-70
2021/09/25 13:06:25;;;;;;;1999.90;999.90;;;;;;;;;;4952795;29;20340;-70
2021/09/25 13:09:10;;;;;;;1999.90;999.90;;;;;;;;;;4951044;28;20749;-69
2021/09/25 13:12:07;;;;;;;1999.90;999.90;;;;;;;;;;4947413;29;20796;-70
2021/09/25 13:14:59;;;;;;;1999.90;999.90;;;;;;;;;;4938939;29;20565;-71
2021/09/25 13:17:45;;;;;;;1999.90;999.90;;;;;;;;;;4949307;29;20205;-69
2021/09/25 13:20:31;;;;;;;1999.90;999.90;;;;;;;;;;4950657;29;20228;-70
2021/09/25 13:23:22;;;;;;;1999.90;999.90;;;;;;;;;;4946459;28;20292;-70
2021/09/25 13:26:07;;;;;;;1999.90;999.90;;;;;;;;;;4944162;29;20252;-71
2021/09/25 13:28:53;;;;;;;1999.90;999.90;;;;;;;;;;4949440;28;20244;-71
2021/09/25 13:31:38;;;;;;;1999.90;999.90;;;;;;;;;;4944816;29;20208;-70
2021/09/25 13:34:23;;;;;;;1999.90;999.90;;;;;;;;;;4946658;29;20684;-70
2021/09/25 13:37:08;;;;;;;1999.90;999.90;;;;;;;;;;4952407;29;20224;-70
2021/09/25 13:39:53;;;;;;;1999.90;999.90;;;;;;;;;;4947305;28;20236;-70
2021/09/25 13:42:39;;;;;;;1999.90;999.90;;;;;;;;;;4952704;29;20212;-70
2021/09/25 13:45:25;;;;;;;1999.90;999.90;;;;;;;;;;4951587;28;20268;-70
2021/09/25 13:48:11;;;;;;;1999.90;999.90;;;;;;;;;;4949796;28;20388;-70
2021/09/25 13:50:56;;;;;;;1999.90;999.90;;;;;;;;;;4944252;29;20821;-70
2021/09/25 13:53:41;;;;;;;1999.90;999.90;;;;;;;;;;4952453;29;20593;-70
2021/09/25 13:56:25;;;;;;;1999.90;999.90;;;;;;;;;;4934903;29;20309;-72
2021/09/25 13:59:10;;;;;;;1999.90;999.90;;;;;;;;;;4933230;29;20720;-72
2021/09/25 14:01:57;;;;;;;1999.90;999.90;;;;;;;;;;4933429;29;20313;-71
2021/09/25 14:04:41;;;;;;;1999.90;999.90;;;;;;;;;;4933956;29;20346;-72
2021/09/25 14:07:26;;;;;;;1999.90;999.90;;;;;;;;;;4933300;29;20566;-70
2021/09/25 14:10:11;;;;;;;1999.90;999.90;;;;;;;;;;4933616;29;20229;-73
2021/09/25 14:12:56;;;;;;;1999.90;999.90;;;;;;;;;;4934933;29;20278;-71
2021/09/25 14:15:41;;;;;;;1999.90;999.90;;;;;;;;;;4936422;29;20209;-71
2021/09/25 14:18:27;;;;;;;1999.90;999.90;;;;;;;;;;4934736;29;20244;-72
2021/09/25 14:21:15;;;;;;;1999.90;999.90;;;;;;;;;;4933675;29;20325;-71
2021/09/25 14:24:00;;;;;;;1999.90;999.90;;;;;;;;;;4934165;29;20197;-70
2021/09/25 14:26:45;;;;;;;1999.90;999.90;;;;;;;;;;4933993;29;20205;-70
2021/09/25 14:29:30;;;;;;;1999.90;999.90;;;;;;;;;;4933439;29;20225;-71
2021/09/25 14:32:15;;;;;;;1999.90;999.90;;;;;;;;;;4933761;29;20205;-70
2021/09/25 14:35:01;;;;;;;1999.90;999.90;;;;;;;;;;4933892;29;20261;-70
2021/09/25 14:37:46;;;;;;;1999.90;999.90;;;;;;;;;;4933381;29;20272;-70
2021/09/25 14:40:31;;;;;;;1999.90;999.90;;;;;;;;;;4933676;29;20204;-70
2021/09/25 14:43:16;;;;;;;1999.90;999.90;;;;;;;;;;4933912;29;20205;-71
2021/09/25 14:46:01;;;;;;;1999.90;999.90;;;;;;;;;;4933632;29;20269;-71
2021/09/25 14:48:48;;;;;;;1999.90;999.90;;;;;;;;;;4933238;29;20261;-71
2021/09/25 14:51:34;;;;;;;1999.90;999.90;;;;;;;;;;4933762;29;20202;-72
2021/09/25 14:54:20;;;;;;;1999.90;999.90;;;;;;;;;;4932058;29;20484;-71
2021/09/25 14:57:05;;;;;;;1999.90;999.90;;;;;;;;;;4935354;29;20217;-73
2021/09/25 14:59:50;;;;;;;1999.90;999.90;;;;;;;;;;4936656;29;20308;-71
2021/09/25 15:02:35;;;;;;;1999.90;999.90;;;;;;;;;;4937064;29;20795;-72
2021/09/25 15:05:20;;;;;;;1999.90;999.90;;;;;;;;;;4937348;29;20210;-72
2021/09/25 15:08:06;;;;;;;1999.90;999.90;;;;;;;;;;4936415;29;20281;-70
2021/09/25 15:10:51;;;;;;;1999.90;999.90;;;;;;;;;;4937244;29;20201;-71
2021/09/25 15:13:36;;;;;;;1999.90;999.90;;;;;;;;;;4936905;29;20598;-69
2021/09/25 15:16:21;;;;;;;1999.90;999.90;;;;;;;;;;4936954;29;20469;-71
2021/09/25 15:19:06;;;;;;;1999.90;999.90;;;;;;;;;;4934680;29;20426;-69
2021/09/25 15:21:53;;;;;;;1999.90;999.90;;;;;;;;;;4936669;29;20249;-69
2021/09/25 15:24:41;;;;;;;1999.90;999.90;;;;;;;;;;4937143;29;20201;-70
2021/09/25 15:27:26;;;;;;;1999.90;999.90;;;;;;;;;;4936834;29;20341;-71
2021/09/25 15:30:11;;;;;;;1999.90;999.90;;;;;;;;;;4936379;29;20266;-70
2021/09/25 15:32:56;;;;;;;1999.90;999.90;;;;;;;;;;4936647;29;20205;-70
2021/09/25 15:35:42;;;;;;;1999.90;999.90;;;;;;;;;;4936557;29;20752;-71
2021/09/25 15:38:26;;;;;;;1999.90;999.90;;;;;;;;;;4935906;29;20233;-73
2021/09/25 15:41:14;;;;;;;1999.90;999.90;;;;;;;;;;4936471;29;20229;-69
2021/09/25 15:43:59;;;;;;;1999.90;999.90;;;;;;;;;;4936111;29;20695;-69
2021/09/25 15:46:44;;;;;;;1999.90;999.90;;;;;;;;;;4936517;29;20538;-70
2021/09/25 15:49:29;;;;;;;1999.90;999.90;;;;;;;;;;4935520;29;20316;-70
2021/09/25 15:52:15;;;;;;;1999.90;999.90;;;;;;;;;;4935825;29;20207;-72
2021/09/25 15:55:00;;;;;;;1999.90;999.90;;;;;;;;;;4936251;29;20549;-69
2021/09/25 15:57:46;;;;;;;1999.90;999.90;;;;;;;;;;4935553;29;20210;-70
2021/09/25 16:00:31;;;;;;;1999.90;999.90;;;;;;;;;;4936085;29;20200;-70
2021/09/25 16:03:17;;;;;;;1999.90;999.90;;;;;;;;;;4936298;29;20330;-70
2021/09/25 16:06:04;;;;;;;1999.90;999.90;;;;;;;;;;4936113;29;20201;-69
2021/09/25 16:08:49;;;;;;;1999.90;999.90;;;;;;;;;;4934298;29;20613;-70
2021/09/25 16:11:34;;;;;;;1999.90;999.90;;;;;;;;;;4935927;29;20258;-71
2021/09/25 16:14:21;;;;;;;1999.90;999.90;;;;;;;;;;4935640;29;20193;-70
2021/09/25 16:17:07;;;;;;;1999.90;999.90;;;;;;;;;;4936582;29;20209;-70
2021/09/25 16:19:52;;;;;;;1999.90;999.90;;;;;;;;;;4935494;29;20221;-70
2021/09/25 16:22:37;;;;;;;1999.90;999.90;;;;;;;;;;4935573;29;20621;-71
2021/09/25 16:25:22;;;;;;;1999.90;999.90;;;;;;;;;;4935799;29;20270;-70
2021/09/25 16:28:07;;;;;;;1999.90;999.90;;;;;;;;;;4935176;29;20206;-71
2021/09/25 16:30:53;;;;;;;1999.90;999.90;;;;;;;;;;4934372;29;20771;-70
2021/09/25 16:33:38;;;;;;;1999.90;999.90;;;;;;;;;;4935886;29;20233;-71
2021/09/25 16:36:24;;;;;;;1999.90;999.90;;;;;;;;;;4935647;29;20400;-71
2021/09/25 16:39:10;;;;;;;1999.90;999.90;;;;;;;;;;4934825;29;20593;-71
2021/09/25 16:41:55;;;;;;;1999.90;999.90;;;;;;;;;;4935517;29;20596;-71
2021/09/25 16:44:40;;;;;;;1999.90;999.90;;;;;;;;;;4935472;29;20229;-70
2021/09/25 16:47:26;;;;;;;1999.90;999.90;;;;;;;;;;4935403;29;20208;-70
2021/09/25 16:50:11;;;;;;;1999.90;999.90;;;;;;;;;;4935617;29;20269;-69
2021/09/25 16:52:56;;;;;;;1999.90;999.90;;;;;;;;;;4935418;29;20211;-71
2021/09/25 16:55:41;;;;;;;1999.90;999.90;;;;;;;;;;4935121;29;20216;-71
2021/09/25 16:58:26;;;;;;;1999.90;999.90;;;;;;;;;;4934293;29;20348;-71
2021/09/25 17:01:11;;;;;;;1999.90;999.90;;;;;;;;;;4935128;29;20208;-71
2021/09/25 17:03:58;;;;;;;1999.90;999.90;;;;;;;;;;4935065;29;20304;-69
2021/09/25 17:06:43;;;;;;;1999.90;999.90;;;;;;;;;;4934840;29;20215;-70
2021/09/25 17:09:28;;;;;;;1999.90;999.90;;;;;;;;;;4934199;29;20246;-70
2021/09/25 17:12:13;;;;;;;1999.90;999.90;;;;;;;;;;4935043;29;20691;-70
2021/09/25 17:14:58;;;;;;;1999.90;999.90;;;;;;;;;;4934555;29;20422;-69
2021/09/25 17:17:43;;;;;;;1999.90;999.90;;;;;;;;;;4934421;29;20212;-72
2021/09/25 17:20:29;;;;;;;1999.90;999.90;;;;;;;;;;4933620;29;20244;-70
2021/09/25 17:23:14;;;;;;;1999.90;999.90;;;;;;;;;;4934383;29;20320;-70
2021/09/25 17:25:59;;;;;;;1999.90;999.90;;;;;;;;;;4934630;29;20215;-69
2021/09/25 17:28:44;;;;;;;1999.90;999.90;;;;;;;;;;4933800;29;20266;-72
2021/09/25 17:31:29;;;;;;;1999.90;999.90;;;;;;;;;;4934470;29;20588;-70
2021/09/25 17:34:14;;;;;;;1999.90;999.90;;;;;;;;;;4934435;29;20194;-71
2021/09/25 17:37:02;;;;;;;1999.90;999.90;;;;;;;;;;4934486;29;20236;-70
2021/09/25 17:39:47;;;;;;;1999.90;999.90;;;;;;;;;;4933352;29;20417;-69
2021/09/25 17:42:32;;;;;;;1999.90;999.90;;;;;;;;;;4934495;29;20218;-70
2021/09/25 17:45:17;;;;;;;1999.90;999.90;;;;;;;;;;4934384;29;20232;-73
2021/09/25 17:48:02;;;;;;;1999.90;999.90;;;;;;;;;;4933392;29;20194;-70
2021/09/25 17:50:47;;;;;;;1999.90;999.90;;;;;;;;;;4934312;29;20347;-70
2021/09/25 17:53:34;;;;;;;1999.90;999.90;;;;;;;;;;4933994;29;20205;-70
2021/09/25 17:56:20;;;;;;;1999.90;999.90;;;;;;;;;;4934229;29;20228;-70
2021/09/25 17:59:07;;;;;;;1999.90;999.90;;;;;;;;;;4933580;29;20252;-70
2021/09/25 18:01:52;;;;;;;1999.90;999.90;;;;;;;;;;4934007;29;20308;-70
2021/09/25 18:04:36;;;;;;;1999.90;999.90;;;;;;;;;;4934207;29;20211;-72
2021/09/25 18:07:25;;;;;;;1999.90;999.90;;;;;;;;;;4934290;29;20346;-71
2021/09/25 18:10:12;;;;;;;1999.90;999.90;;;;;;;;;;4933800;29;20742;-71
2021/09/25 18:12:57;;;;;;;1999.90;999.90;;;;;;;;;;4934452;29;20318;-71
2021/09/25 18:15:42;;;;;;;1999.90;999.90;;;;;;;;;;4933996;29;20304;-71
2021/09/25 18:18:26;;;;;;;1999.90;999.90;;;;;;;;;;4933294;29;20229;-70
2021/09/25 18:21:11;;;;;;;1999.90;999.90;;;;;;;;;;4934083;29;20220;-70
2021/09/25 18:23:57;;;;;;;1999.90;999.90;;;;;;;;;;4934172;29;20201;-70
2021/09/25 18:26:43;;;;;;;1999.90;999.90;;;;;;;;;;4933968;29;20305;-70
2021/09/25 18:29:28;;;;;;;1999.90;999.90;;;;;;;;;;4933509;29;20233;-72
2021/09/25 18:32:13;;;;;;;1999.90;999.90;;;;;;;;;;4935711;29;20289;-71
2021/09/25 18:34:58;;;;;;;1999.90;999.90;;;;;;;;;;4938073;29;20257;-70
2021/09/25 18:37:43;;;;;;;1999.90;999.90;;;;;;;;;;4937909;29;20672;-70
2021/09/25 18:40:28;;;;;;;1999.90;999.90;;;;;;;;;;4937578;29;20321;-71
2021/09/25 18:43:14;;;;;;;1999.90;999.90;;;;;;;;;;4937523;29;20224;-71
2021/09/25 18:45:59;;;;;;;1999.90;999.90;;;;;;;;;;4937714;29;20582;-70
2021/09/25 18:48:44;;;;;;;1999.90;999.90;;;;;;;;;;4936566;29;20723;-71
2021/09/25 18:51:29;;;;;;;1999.90;999.90;;;;;;;;;;4936834;29;20421;-71
2021/09/25 18:54:13;;;;;;;1999.90;999.90;;;;;;;;;;4937390;29;20561;-71
2021/09/25 18:56:58;;;;;;;1999.90;999.90;;;;;;;;;;4937516;29;20304;-70
2021/09/25 18:59:45;;;;;;;1999.90;999.90;;;;;;;;;;4936406;29;20320;-71
2021/09/25 19:02:31;;;;;;;1999.90;999.90;;;;;;;;;;4937545;29;20277;-72
2021/09/25 19:05:16;;;;;;;1999.90;999.90;;;;;;;;;;4937488;29;20569;-70
2021/09/25 19:08:01;;;;;;;1999.90;999.90;;;;;;;;;;4936685;29;20707;-70
2021/09/25 19:10:46;;;;;;;1999.90;999.90;;;;;;;;;;4937562;29;20674;-70
2021/09/25 19:13:30;;;;;;;1999.90;999.90;;;;;;;;;;4937181;29;20201;-70
2021/09/25 19:16:17;;;;;;;1999.90;999.90;;;;;;;;;;4937149;29;20193;-71
2021/09/25 19:19:02;;;;;;;1999.90;999.90;;;;;;;;;;4936605;29;20230;-72
2021/09/25 19:21:47;;;;;;;1999.90;999.90;;;;;;;;;;4937039;29;20304;-70
2021/09/25 19:24:32;;;;;;;1999.90;999.90;;;;;;;;;;4937150;29;20612;-71
2021/09/25 19:27:17;;;;;;;1999.90;999.90;;;;;;;;;;4936861;29;20579;-70
2021/09/25 19:30:05;;;;;;;1999.90;999.90;;;;;;;;;;4936447;29;20229;-71
2021/09/25 19:32:51;;;;;;;1999.90;999.90;;;;;;;;;;4936851;29;20241;-71
2021/09/25 19:35:39;;;;;;;1999.90;999.90;;;;;;;;;;4937056;29;20242;-70
2021/09/25 19:38:24;;;;;;;1999.90;999.90;;;;;;;;;;4936007;29;20249;-71
2021/09/25 19:41:09;;;;;;;1999.90;999.90;;;;;;;;;;4936910;29;20331;-70
2021/09/25 19:43:54;;;;;;;1999.90;999.90;;;;;;;;;;4936999;29;20704;-73
2021/09/25 19:46:39;;;;;;;1999.90;999.90;;;;;;;;;;4936746;29;20293;-69
2021/09/25 19:49:25;;;;;;;1999.90;999.90;;;;;;;;;;4935882;29;20233;-73
2021/09/25 19:52:12;;;;;;;1999.90;999.90;;;;;;;;;;4936442;29;20698;-70
2021/09/25 19:54:57;;;;;;;1999.90;999.90;;;;;;;;;;4936175;29;20204;-71
2021/09/25 19:57:42;;;;;;;1999.90;999.90;;;;;;;;;;4936164;29;20213;-72
